Flight Track Log - Related Links

Times and Time Zones

All times are in EDT time to prevent confusion due to time zone crossing. See the SWA896 flight status page for this flight to view local times or setup timezone preferences in your user account.


Time Position Orientation Groundspeed Altitude Reporting Facility
EDT Latitude Longitude Course Direction KTS MPH feet Rate Location/Type
Mon 08:10:18 AM 42.9167 -78.7500 270° West 169 194 2,000  Level Buffalo TRACON
Mon 08:10:48 AM 42.9167 -78.7667 270° West 158 182 3,000 1,748 Climbing Buffalo TRACON
Mon 08:12:25 AM 42.8242 -78.8281 206° Southwest 223 257 5,700 2,369 Climbing Cleveland Center
Mon 08:13:25 AM 42.7456 -78.8642 199° South 254 292 9,200 2,550 Climbing Cleveland Center
Mon 08:14:25 AM 42.6814 -78.8914 197° South 268 308 10,800 1,650 Climbing Cleveland Center
Mon 08:15:25 AM 42.5903 -78.9361 200° South 307 353 12,500 2,200 Climbing Cleveland Center
Mon 08:16:25 AM 42.4908 -78.9811 198° South 343 395 15,200 2,550 Climbing Cleveland Center
Mon 08:17:25 AM 42.3872 -79.0286 199° South 382 440 17,600 2,050 Climbing Cleveland Center
Mon 08:18:25 AM 42.2836 -79.0761 199° South 396 456 19,300 1,850 Climbing Cleveland Center
Mon 08:19:25 AM 42.1931 -79.1567 213° Southwest 396 456 21,300 1,750 Climbing Cleveland Center
Mon 08:20:25 AM 42.1822 -79.3139 265° West 362 417 22,800 1,550 Climbing Cleveland Center
Mon 08:21:25 AM 42.1819 -79.4736 270° West 385 443 24,400 1,850 Climbing Cleveland Center
Mon 08:22:25 AM 42.1792 -79.6531 269° West 428 493 26,500 1,650 Climbing Cleveland Center
Mon 08:23:25 AM 42.1764 -79.8128 269° West 435 501 27,700 1,350 Climbing Cleveland Center
Mon 08:24:25 AM 42.1753 -79.9781 270° West 440 506 29,200 1,400 Climbing Cleveland Center
Mon 08:25:25 AM 42.1717 -80.1433 268° West 440 506 30,500 1,300 Climbing Cleveland Center
Mon 08:26:25 AM 42.1681 -80.3003 268° West 440 506 31,800 1,300 Climbing Cleveland Center
Mon 08:27:25 AM 42.1622 -80.4656 267° West 440 506 33,100 1,100 Climbing Cleveland Center
Mon 08:28:25 AM 42.1581 -80.6222 268° West 440 506 34,000 450 Climbing Cleveland Center
Mon 08:29:25 AM 42.1536 -80.7819 268° West 434 499 34,000  Level Cleveland Center
Mon 08:30:25 AM 42.1492 -80.9417 268° West 434 499 34,000  Level Cleveland Center
Mon 08:31:25 AM 42.1422 -81.0983 267° West 434 499 34,000  Level Cleveland Center
Mon 08:32:25 AM 42.1394 -81.2553 269° West 427 491 34,000  Level Cleveland Center
Mon 08:33:25 AM 42.1342 -81.4147 267° West 422 486 34,000  Level Cleveland Center
Mon 08:34:25 AM 42.1308 -81.5714 268° West 422 486 34,000  Level Cleveland Center
Mon 08:35:25 AM 42.1272 -81.7281 268° West 422 486 34,000  Level Cleveland Center
Mon 08:36:25 AM 42.1256 -81.8850 269° West 422 486 34,000  Level Cleveland Center
Mon 08:37:25 AM 42.1219 -82.0219 268° West 422 486 34,000  Level Cleveland Center
Mon 08:38:25 AM 42.1175 -82.1983 268° West 422 486 34,000  Level Cleveland Center
Mon 08:39:25 AM 42.1108 -82.3578 267° West 422 486 34,000  Level Cleveland Center
Mon 08:40:25 AM 42.1083 -82.5172 269° West 422 486 34,000  Level Cleveland Center
Mon 08:41:25 AM 42.1056 -82.6767 269° West 422 486 34,000  Level Cleveland Center
Mon 08:42:25 AM 42.1025 -82.8361 269° West 422 486 34,000  Level Cleveland Center
Mon 08:43:25 AM 42.0950 -82.9953 266° West 422 486 34,000  Level Cleveland Center
Mon 08:44:25 AM 42.0917 -83.1575 268° West 422 486 34,000 50 Level Cleveland Center
Mon 08:45:25 AM 42.0858 -83.3139 267° West 422 486 34,100 600 Climbing Cleveland Center
Mon 08:46:25 AM 42.0800 -83.4731 267° West 422 486 35,200 950 Climbing Cleveland Center
Mon 08:47:25 AM 42.0758 -83.6269 268° West 422 486 36,000 400 Climbing Cleveland Center
Mon 08:48:25 AM 42.0725 -83.7528 268° West 422 486 36,000  Level Cleveland Center
Mon 08:49:25 AM 42.0656 -83.9231 267° West 422 486 36,000  Level Cleveland Center
Mon 08:50:25 AM 42.0589 -84.0792 267° West 422 486 36,000  Level Cleveland Center
Mon 08:51:25 AM 42.0519 -84.2356 267° West 422 486 36,000  Level Cleveland Center
Mon 08:52:25 AM 42.0506 -84.4033 269° West 417 480 36,000  Level Cleveland Center
Mon 08:53:25 AM 42.0433 -84.5567 266° West 417 480 36,000  Level Cleveland Center
Mon 08:55:44 AM 42.0269 -84.8869 266° West 408 470 36,000  Level Chicago Center
Mon 08:56:46 AM 42.0192 -85.0403 266° West 409 471 36,000  Level Chicago Center
Mon 08:57:48 AM 42.0111 -85.2194 267° West 404 465 36,000  Level Chicago Center
Mon 08:58:50 AM 42.0039 -85.3706 266° West 405 466 36,000  Level Chicago Center
Mon 08:59:52 AM 41.9967 -85.5100 266° West 410 472 36,000  Level Chicago Center
Mon 09:00:54 AM 41.9875 -85.6906 266° West 410 472 36,000  Level Chicago Center
Mon 09:01:56 AM 41.9794 -85.8431 266° West 413 475 36,000  Level Chicago Center
Mon 09:02:58 AM 41.9714 -85.9939 266° West 408 470 36,000  Level Chicago Center
Mon 09:03:59 AM 41.9625 -86.1456 266° West 409 471 36,000  Level Chicago Center
Mon 09:05:01 AM 41.9539 -86.2967 266° West 409 471 36,000  Level Chicago Center
Mon 09:06:03 AM 41.9450 -86.4467 265° West 406 467 36,000  Level Chicago Center
Mon 09:07:05 AM 41.9350 -86.6269 266° West 406 467 36,000  Level Chicago Center
Mon 09:08:07 AM 41.9253 -86.7872 265° West 406 467 36,000  Level Chicago Center
Mon 09:09:09 AM 41.9156 -86.9369 265° West 406 467 36,000  Level Chicago Center
Mon 09:10:10 AM 41.9044 -87.0878 264° West 409 471 36,000  Level Chicago Center
Mon 09:11:12 AM 41.8961 -87.2392 266° West 409 471 36,000  Level Chicago Center
Mon 09:12:14 AM 41.8853 -87.3897 265° West 409 471 36,000  Level Chicago Center
Mon 09:13:17 AM 41.8731 -87.5392 264° West 408 470 36,000  Level Chicago Center
Mon 09:14:18 AM 41.8611 -87.7186 265° West 408 470 36,000  Level Chicago Center
Mon 09:15:20 AM 41.8508 -87.8664 265° West 404 465 36,000  Level Chicago Center
Mon 09:16:22 AM 41.8397 -88.0139 264° West 404 465 36,000  Level Chicago Center
Mon 09:17:24 AM 41.8289 -88.1608 264° West 403 464 36,000  Level Chicago Center
Mon 09:18:26 AM 41.8158 -88.3372 264° West 402 463 36,000  Level Chicago Center
Mon 09:19:28 AM 41.8047 -88.4856 264° West 403 464 36,000  Level Chicago Center
Mon 09:20:30 AM 41.7928 -88.6306 264° West 398 458 36,000  Level Chicago Center
Mon 09:21:32 AM 41.7822 -88.7781 265° West 401 461 36,000  Level Chicago Center
Mon 09:22:34 AM 41.7694 -88.9281 264° West 406 467 36,000  Level Chicago Center
Mon 09:23:36 AM 41.7550 -89.1050 264° West 404 465 36,000  Level Chicago Center
Mon 09:24:38 AM 41.7433 -89.2553 264° West 407 468 36,000  Level Chicago Center
Mon 09:25:40 AM 41.7306 -89.4042 263° West 406 467 36,000  Level Chicago Center
Mon 09:26:42 AM 41.7169 -89.5617 263° West 403 464 36,000  Level Chicago Center
Mon 09:27:44 AM 41.7036 -89.7117 263° West 408 470 36,000  Level Chicago Center
Mon 09:28:46 AM 41.6903 -89.8633 263° West 411 473 36,000  Level Chicago Center
Mon 09:29:48 AM 41.6761 -90.0161 263° West 416 479 36,000  Level Chicago Center
Mon 09:30:50 AM 41.6633 -90.1669 264° West 410 472 36,000  Level Chicago Center
Mon 09:31:52 AM 41.6450 -90.3489 262° West 417 480 36,000  Level Chicago Center
Mon 09:32:54 AM 41.6314 -90.4942 263° West 401 461 36,000  Level Chicago Center
Mon 09:33:56 AM 41.6186 -90.6269 263° West 402 463 36,000  Level Chicago Center
Mon 09:34:58 AM 41.6014 -90.8028 263° West 401 461 36,000  Level Chicago Center
Mon 09:36:00 AM 41.5867 -90.9514 263° West 404 465 36,000  Level Chicago Center
Mon 09:37:02 AM 41.5725 -91.0978 263° West 401 461 36,000  Level Chicago Center
Mon 09:38:04 AM 41.5572 -91.2458 262° West 403 464 36,000  Level Chicago Center
Mon 09:39:06 AM 41.5417 -91.3944 262° West 405 466 36,000  Level Chicago Center
Mon 09:40:08 AM 41.5247 -91.5692 263° West 401 461 36,000  Level Chicago Center
Mon 09:41:10 AM 41.5092 -91.7175 262° West 403 464 36,000  Level Chicago Center
Mon 09:42:12 AM 41.4958 -91.8628 263° West 401 461 36,000  Level Chicago Center
Mon 09:43:14 AM 41.4814 -92.0103 263° West 402 463 36,000  Level Chicago Center
Mon 09:44:16 AM 41.4678 -92.1572 263° West 403 464 36,000  Level Chicago Center
Mon 09:45:18 AM 41.4531 -92.3047 262° West 404 465 36,000  Level Chicago Center
Mon 09:46:20 AM 41.4364 -92.4644 262° West 400 460 36,000  Level Chicago Center
Mon 09:47:22 AM 41.4211 -92.6094 262° West 399 459 36,000  Level Chicago Center
Mon 09:47:48 AM 41.4131 -92.6983 263° West 398 458 36,000  Level Minneapolis Center
Mon 09:48:49 AM 41.3978 -92.8422 262° West 397 457 36,000  Level Minneapolis Center
Mon 09:49:50 AM 41.3825 -92.9886 262° West 400 460 36,000  Level Minneapolis Center
Mon 09:50:52 AM 41.3669 -93.1339 262° West 401 461 36,000  Level Minneapolis Center
Mon 09:51:53 AM 41.3514 -93.2808 262° West 404 465 36,000  Level Minneapolis Center
Mon 09:52:54 AM 41.3353 -93.4300 262° West 409 471 36,000  Level Minneapolis Center
Mon 09:53:56 AM 41.3189 -93.5778 262° West 409 471 36,000  Level Minneapolis Center
Mon 09:54:57 AM 41.3003 -93.7550 262° West 410 472 36,000  Level Minneapolis Center
Mon 09:55:58 AM 41.2833 -93.9019 261° West 408 470 36,000  Level Minneapolis Center
Mon 09:57:00 AM 41.2669 -94.0481 262° West 405 466 36,000  Level Minneapolis Center
Mon 09:58:01 AM 41.2508 -94.1925 262° West 402 463 36,000  Level Minneapolis Center
Mon 09:59:02 AM 41.2314 -94.3525 261° West 404 465 36,000  Level Minneapolis Center
Mon 10:00:04 AM 41.2136 -94.5008 261° West 406 467 36,000  Level Minneapolis Center
Mon 10:01:05 AM 41.1967 -94.6461 261° West 401 461 36,000  Level Minneapolis Center
Mon 10:02:06 AM 41.1789 -94.7919 261° West 400 460 36,000  Level Minneapolis Center
Mon 10:03:08 AM 41.1611 -94.9372 261° West 399 459 36,000  Level Minneapolis Center
Mon 10:04:09 AM 41.1428 -95.0817 260° West 397 457 36,000  Level Minneapolis Center
Mon 10:05:10 AM 41.1244 -95.2261 260° West 396 456 36,000  Level Minneapolis Center
Mon 10:06:12 AM 41.1069 -95.3689 261° West 393 452 36,000  Level Minneapolis Center
Mon 10:07:13 AM 41.0850 -95.5392 260° West 389 448 36,000  Level Minneapolis Center
Mon 10:08:14 AM 41.0664 -95.6806 260° West 387 445 36,000  Level Minneapolis Center
Mon 10:09:16 AM 41.0483 -95.8219 260° West 387 445 36,000  Level Minneapolis Center
Mon 10:10:17 AM 41.0289 -95.9631 260° West 386 444 36,000  Level Minneapolis Center
Mon 10:11:18 AM 40.9944 -96.1006 252° West 388 447 36,000  Level Minneapolis Center
Mon 10:12:20 AM 40.9586 -96.2381 251° West 392 451 36,000  Level Minneapolis Center
Mon 10:13:21 AM 40.9236 -96.3750 251° West 392 451 36,000  Level Minneapolis Center
Mon 10:14:22 AM 40.8875 -96.5122 251° West 393 452 36,000  Level Minneapolis Center
Mon 10:15:24 AM 40.8514 -96.6500 251° West 395 455 36,000  Level Minneapolis Center
Mon 10:16:25 AM 40.8153 -96.7892 251° West 399 459 36,000  Level Minneapolis Center
Mon 10:17:27 AM 40.7769 -96.9281 250° West 401 461 36,000  Level Minneapolis Center
Mon 10:18:28 AM 40.7417 -97.0694 252° West 405 466 36,000  Level Minneapolis Center
Mon 10:19:30 AM 40.7031 -97.2092 250° West 405 466 36,000  Level Minneapolis Center
Mon 10:20:31 AM 40.6608 -97.3697 251° West 405 466 36,000  Level Minneapolis Center
Mon 10:21:33 AM 40.6211 -97.5089 249° West 404 465 36,000  Level Minneapolis Center
Mon 10:22:34 AM 40.5839 -97.6481 251° West 403 464 36,000  Level Minneapolis Center
Mon 10:23:36 AM 40.5456 -97.7889 250° West 407 468 36,000  Level Minneapolis Center
Mon 10:24:37 AM 40.5067 -97.9283 250° West 406 467 36,000  Level Minneapolis Center
Mon 10:25:39 AM 40.4689 -98.0689 251° West 407 468 36,000  Level Minneapolis Center
Mon 10:26:40 AM 40.4286 -98.2078 249° West 406 467 36,000  Level Minneapolis Center
Mon 10:27:42 AM 40.3486 -98.3533 234° Southwest 409 471 36,000  Level Minneapolis Center
Mon 10:28:43 AM 40.2778 -98.4725 232° Southwest 411 473 36,000  Level Minneapolis Center
Mon 10:29:45 AM 40.2056 -98.5889 231° Southwest 410 472 36,000  Level Minneapolis Center
Mon 10:30:46 AM 40.1411 -98.7131 236° Southwest 412 474 36,000  Level Minneapolis Center
Mon 10:31:48 AM 40.0831 -98.8431 240° Southwest 413 475 36,000  Level Minneapolis Center
Mon 10:32:49 AM 40.0278 -98.9725 241° Southwest 410 472 36,000  Level Minneapolis Center
Mon 10:33:51 AM 39.9731 -99.1000 241° Southwest 407 468 36,000  Level Minneapolis Center
Mon 10:34:53 AM 39.9217 -99.2289 243° Southwest 403 464 36,000  Level Minneapolis Center
Mon 10:35:54 AM 39.8750 -99.3592 245° Southwest 398 458 36,000  Level Minneapolis Center
Mon 10:36:56 AM 39.8294 -99.4889 245° Southwest 394 453 36,000  Level Minneapolis Center
Mon 10:37:57 AM 39.7828 -99.6472 249° West 391 450 36,000  Level Minneapolis Center
Mon 10:38:59 AM 39.7447 -99.7800 250° West 390 449 36,000  Level Minneapolis Center
Mon 10:40:01 AM 39.7050 -99.9111 249° West 390 449 36,000  Level Minneapolis Center
Mon 10:41:02 AM 39.6653 -100.0436 249° West 391 450 36,000  Level Minneapolis Center
Mon 10:41:17 AM 39.6550 -100.0683 242° Southwest 388 447 36,000  Level Denver Center
Mon 10:42:19 AM 39.6269 -100.2214 257° West 392 451 36,000  Level Denver Center
Mon 10:43:21 AM 39.6089 -100.3517 260° West 387 445 36,000  Level Denver Center
Mon 10:44:23 AM 39.5869 -100.5022 259° West 382 440 36,000  Level Denver Center
Mon 10:45:25 AM 39.5681 -100.6314 259° West 381 438 36,000  Level Denver Center
Mon 10:46:27 AM 39.5503 -100.7594 260° West 379 436 36,000  Level Denver Center
Mon 10:47:29 AM 39.5286 -100.9050 259° West 370 426 36,000  Level Denver Center
Mon 10:48:31 AM 39.5100 -101.0325 259° West 373 429 36,000  Level Denver Center
Mon 10:49:33 AM 39.4878 -101.1797 259° West 372 428 36,000  Level Denver Center
Mon 10:50:35 AM 39.4689 -101.3069 259° West 375 432 36,000  Level Denver Center
Mon 10:51:37 AM 39.4475 -101.4547 259° West 375 432 36,000  Level Denver Center
Mon 10:52:39 AM 39.4272 -101.5817 258° West 377 434 36,000  Level Denver Center
Mon 10:53:41 AM 39.4047 -101.7286 259° West 373 429 36,000  Level Denver Center
Mon 10:54:43 AM 39.3856 -101.8536 259° West 371 427 36,000  Level Denver Center
Mon 10:55:45 AM 39.3631 -101.9972 259° West 368 423 36,000  Level Denver Center
Mon 10:56:47 AM 39.3483 -102.1014 260° West 368 423 36,000  Level Denver Center
Mon 10:57:49 AM 39.3208 -102.2569 257° West 365 420 36,000  Level Denver Center
Mon 10:58:51 AM 39.3025 -102.3783 259° West 363 418 36,000  Level Denver Center
Mon 10:59:53 AM 39.2783 -102.5233 258° West 369 425 36,000  Level Denver Center
Mon 11:00:56 AM 39.2583 -102.6453 258° West 366 421 36,000  Level Denver Center
Mon 11:01:58 AM 39.2375 -102.7811 259° West 367 422 36,000  Level Denver Center
Mon 11:03:00 AM 39.2156 -102.9119 258° West 370 426 36,000  Level Denver Center
Mon 11:04:01 AM 39.1978 -103.0211 258° West 370 426 36,000  Level Denver Center
Mon 11:05:04 AM 39.1678 -103.1942 257° West 368 423 36,000  Level Denver Center
Mon 11:06:06 AM 39.1467 -103.3250 258° West 370 426 36,000  Level Denver Center
Mon 11:07:08 AM 39.1250 -103.4542 258° West 367 422 36,000  Level Denver Center
Mon 11:08:10 AM 39.1022 -103.5833 257° West 366 421 36,000  Level Denver Center
Mon 11:09:12 AM 39.0800 -103.7125 258° West 366 421 36,000  Level Denver Center
Mon 11:10:14 AM 39.0575 -103.8419 257° West 366 421 36,000  Level Denver Center
Mon 11:11:16 AM 39.0339 -103.9728 257° West 369 425 36,000  Level Denver Center
Mon 11:12:30 AM 39.0117 -104.1033 258° West 370 426 36,000  Level Denver Center
Mon 11:13:32 AM 38.9839 -104.2572 257° West 375 432 36,000  Level Denver Center
Mon 11:15:37 AM 38.9336 -104.5433 257° West 376 433 36,000  Level Denver Center
Mon 11:16:39 AM 38.9089 -104.6750 256° West 374 430 36,000  Level Denver Center
Mon 11:17:41 AM 38.8853 -104.8050 257° West 371 427 36,000  Level Denver Center
Mon 11:18:43 AM 38.8606 -104.9386 257° West 377 434 36,000  Level Denver Center
Mon 11:19:45 AM 38.8361 -105.0725 257° West 381 438 36,000  Level Denver Center
Mon 11:20:47 AM 38.8075 -105.2250 257° West 375 432 36,000  Level Denver Center
Mon 11:21:49 AM 38.7828 -105.3556 256° West 373 429 36,000  Level Denver Center
Mon 11:22:51 AM 38.7586 -105.4842 256° West 368 423 36,000  Level Denver Center
Mon 11:23:53 AM 38.7339 -105.6142 256° West 370 426 36,000  Level Denver Center
Mon 11:24:55 AM 38.7092 -105.7425 256° West 370 426 36,000  Level Denver Center
Mon 11:25:57 AM 38.6847 -105.8706 256° West 368 423 36,000  Level Denver Center
Mon 11:26:59 AM 38.6597 -105.9983 256° West 367 422 36,000  Level Denver Center
Mon 11:28:01 AM 38.6306 -106.1469 256° West 367 422 36,000  Level Denver Center
Mon 11:29:03 AM 38.6061 -106.2725 256° West 364 419 36,000  Level Denver Center
Mon 11:30:05 AM 38.5808 -106.3981 256° West 363 418 36,000  Level Denver Center
Mon 11:31:07 AM 38.5558 -106.5228 256° West 362 417 36,000  Level Denver Center
Mon 11:32:09 AM 38.5308 -106.6467 256° West 360 414 36,000  Level Denver Center
Mon 11:33:11 AM 38.5067 -106.7714 256° West 358 412 36,000  Level Denver Center
Mon 11:34:13 AM 38.4803 -106.8967 255° West 362 417 36,000  Level Denver Center
Mon 11:35:15 AM 38.4556 -107.0214 256° West 360 414 36,000  Level Denver Center
Mon 11:36:17 AM 38.4167 -107.1450 248° West 374 430 36,000  Level Denver Center
Mon 11:37:19 AM 38.3689 -107.2897 247° West 372 428 36,000  Level Denver Center
Mon 11:38:21 AM 38.3300 -107.4056 247° West 370 426 36,000  Level Denver Center
Mon 11:39:23 AM 38.2847 -107.5408 247° West 371 427 36,000  Level Denver Center
Mon 11:40:25 AM 38.2475 -107.6556 248° West 367 422 36,000  Level Denver Center
Mon 11:41:27 AM 38.2019 -107.7892 247° West 368 423 36,000  Level Denver Center
Mon 11:42:29 AM 38.1628 -107.9047 247° West 371 427 36,000  Level Denver Center
Mon 11:43:32 AM 38.1178 -108.0389 247° West 371 427 36,000  Level Denver Center
Mon 11:44:34 AM 38.0783 -108.1533 246° West 370 426 36,000  Level Denver Center
Mon 11:45:36 AM 38.0339 -108.2808 246° West 372 428 36,000  Level Denver Center
Mon 11:46:38 AM 37.9936 -108.3983 247° West 377 434 36,000  Level Denver Center
Mon 11:47:40 AM 37.9567 -108.5350 251° West 371 427 36,000  Level Denver Center
Mon 11:48:42 AM 37.9300 -108.6572 255° West 374 430 36,000  Level Denver Center
Mon 11:49:56 AM 37.8981 -108.7983 254° West 374 430 36,000  Level Denver Center
Mon 11:50:58 AM 37.8625 -108.9558 254° West 367 422 36,000  Level Denver Center
Mon 11:52:00 AM 37.8353 -109.0769 254° West 371 427 36,000  Level Denver Center
Mon 11:53:02 AM 37.8031 -109.2194 254° West 376 433 36,000  Level Denver Center
Mon 11:54:04 AM 37.7753 -109.3433 254° West 383 441 36,000  Level Denver Center
Mon 11:55:06 AM 37.7514 -109.4442 253° West 379 436 36,000  Level Denver Center
Mon 11:56:08 AM 37.7139 -109.6103 254° West 386 444 36,000  Level Denver Center
Mon 11:57:10 AM 37.6853 -109.7328 254° West 383 441 36,000  Level Denver Center
Mon 11:58:13 AM 37.6517 -109.8753 253° West 379 436 36,000  Level Denver Center
Mon 11:59:15 AM 37.6231 -109.9986 254° West 381 438 36,000  Level Denver Center
Mon 12:00:18 PM 37.5928 -110.1219 253° West 383 441 36,000  Level Denver Center
Mon 12:01:21 PM 37.5536 -110.2861 253° West 383 441 36,000  Level Denver Center
Mon 12:02:23 PM 37.5242 -110.4097 253° West 385 443 36,000  Level Denver Center
Mon 12:03:25 PM 37.4914 -110.5486 253° West 385 443 36,000 -435 Level Denver Center
Mon 12:04:27 PM 37.4600 -110.6783 253° West 386 444 35,100 -919 Descending Denver Center
Mon 12:05:29 PM 37.4294 -110.8067 253° West 385 443 34,100 -968 Descending Denver Center
Mon 12:06:31 PM 37.3983 -110.9328 253° West 378 435 33,100 -968 Descending Denver Center
Mon 12:07:33 PM 37.3681 -111.0542 253° West 367 422 32,100 -532 Descending Denver Center
Mon 12:08:35 PM 37.3319 -111.2036 253° West 374 430 32,000 -48 Descending Denver Center
Mon 12:09:37 PM 37.3000 -111.3325 253° West 385 443 32,000  Level Denver Center
Mon 12:10:39 PM 37.2672 -111.4600 252° West 384 442 32,000  Level Denver Center
Mon 12:11:41 PM 37.2350 -111.5869 252° West 382 440 32,000  Level Denver Center
Mon 12:12:43 PM 37.2053 -111.7147 254° West 382 440 32,000  Level Denver Center
Mon 12:13:45 PM 37.1739 -111.8414 253° West 378 435 32,000  Level Denver Center
Mon 12:14:00 PM 37.1567 -111.8964 249° West 387 445 32,000  Level Los Angeles Center
Mon 12:15:02 PM 37.1236 -112.0261 252° West 391 450 32,000  Level Los Angeles Center
Mon 12:16:05 PM 37.0903 -112.1558 252° West 390 449 32,000  Level Los Angeles Center
Mon 12:17:07 PM 37.0558 -112.2856 252° West 392 451 32,000  Level Los Angeles Center
Mon 12:18:09 PM 37.0231 -112.4150 252° West 390 449 32,000  Level Los Angeles Center
Mon 12:19:11 PM 36.9892 -112.5456 252° West 392 451 32,000  Level Los Angeles Center
Mon 12:20:13 PM 36.9469 -112.7028 251° West 396 456 32,000  Level Los Angeles Center
Mon 12:21:15 PM 36.9133 -112.8331 252° West 394 453 32,000  Level Los Angeles Center
Mon 12:22:17 PM 36.8783 -112.9636 252° West 395 455 32,000  Level Los Angeles Center
Mon 12:23:20 PM 36.8439 -113.0947 252° West 396 456 32,000  Level Los Angeles Center
Mon 12:24:22 PM 36.8086 -113.2261 251° West 397 457 32,000 -726 Level Los Angeles Center
Mon 12:25:24 PM 36.7742 -113.3572 252° West 397 457 30,500 -1,935 Descending Los Angeles Center
Mon 12:26:26 PM 36.7331 -113.5069 251° West 385 443 28,000 -2,177 Descending Los Angeles Center
Mon 12:27:28 PM 36.6936 -113.6253 247° West 375 432 26,000 -1,984 Descending Los Angeles Center
Mon 12:28:30 PM 36.6506 -113.7475 246° West 381 438 23,900 -2,032 Descending Los Angeles Center
Mon 12:29:32 PM 36.6094 -113.8669 247° West 380 437 21,800 -1,935 Descending Los Angeles Center
Mon 12:30:34 PM 36.5711 -113.9800 247° West 364 419 19,900 -1,790 Descending Los Angeles Center
Mon 12:31:36 PM 36.5328 -114.0850 246° West 344 396 18,100 -1,776 Descending Los Angeles Center
Mon 12:32:39 PM 36.4961 -114.1903 247° West 330 380 16,200 -1,962 Descending Los Angeles Center
Mon 12:33:20 PM 36.4683 -114.2806 249° West 319 367 14,700 -2,032 Descending Los Angeles Center
Mon 12:33:41 PM 36.4542 -114.3103 239° Southwest 317 365 14,100 -1,663 Descending Los Angeles Center
Mon 12:34:43 PM 36.4203 -114.4072 247° West 309 356 12,400 -1,016 Descending Los Angeles Center
Mon 12:35:45 PM 36.3717 -114.4850 232° Southwest 304 350 12,000 -823 Descending Los Angeles Center
Mon 12:36:47 PM 36.2875 -114.5269 202° Southwest 304 350 10,700 -1,171 Descending Los Angeles Center
Mon 12:37:48 PM 36.2372 -114.6028 231° Southwest 285 328 9,600 -1,086 Descending Los Angeles Center
Mon 12:38:43 PM 36.1944 -114.6731 233° Southwest 278 320 8,600 -1,034 Descending Los Angeles Center
Mon 12:39:44 PM 36.1481 -114.7475 232° Southwest 273 314 7,600 -661 Descending Los Angeles Center
Mon 12:40:50 PM 36.0975 -114.8311 233° Southwest 268 308 7,200 -851 Descending Los Angeles Center
Mon 12:41:58 PM 36.0747 -114.9094 250° West 260 299 5,700 -1,338 Descending Los Angeles Center
Mon 12:43:00 PM 36.0739 -114.9856 269° West 235 270 4,300 -1,200 Descending Los Angeles Center
Mon 12:43:53 PM 36.0733 -115.0467 269° West 185 213 3,400 -871 Descending Los Angeles Center
Mon 12:45:04 PM 36.0742 -115.1036 271° West 183 211 2,500 -761 Descending Los Angeles Center
Mon 12:46:00 PM 36.0667 -115.1500 219° Southwest  Level FlightAware Approximate

Login

Don't have an account? Register now (free) for customized features, flight alerts, and more!